Time;durP1;ratioP1;P1;durP2;ratioP2;P2;SDS_P1;SDS_P2;PMS_P1;PMS_P2;Temp;Humidity;BMP_temperature;BMP_pressure;BME280_temperature;BME280_humidity;BME280_pressure;Samples;Min_cycle;Max_cycle;Signal;HPM_P1;HPM_P2
2024/02/27 00:00:22;;;;;;;;;71.67;56.00;;;;;-143.90;100.00;75531.97;4954294;28;101861;-74
2024/02/27 00:02:49;;;;;;;;;76.33;58.33;;;;;-143.90;100.00;75538.16;4953837;28;104513;-74
2024/02/27 00:05:16;;;;;;;;;72.33;58.00;;;;;-143.90;100.00;75534.03;4961816;28;101926;-74
2024/02/27 00:07:43;;;;;;;;;79.67;58.67;;;;;-143.90;100.00;75527.81;4951601;28;101993;-74
2024/02/27 00:10:14;;;;;;;;;76.00;55.33;;;;;-143.90;100.00;75519.56;4959390;28;101942;-74
2024/02/27 00:12:41;;;;;;;;;70.00;54.00;;;;;-143.90;100.00;75527.81;4957830;28;103329;-74
2024/02/27 00:15:09;;;;;;;;;76.67;57.33;;;;;-143.90;100.00;75527.81;4958970;28;102060;-74
2024/02/27 00:17:36;;;;;;;;;83.75;63.00;;;;;-143.90;100.00;75554.72;4950368;28;105358;-75
2024/02/27 00:20:04;;;;;;;;;82.67;61.00;;;;;-143.90;100.00;75567.13;4950822;28;102040;-75
2024/02/27 00:22:30;;;;;;;;;66.67;54.33;;;;;-143.90;100.00;75577.44;4951960;28;103314;-75
2024/02/27 00:24:57;;;;;;;;;80.67;63.00;;;;;-143.90;100.00;75565.03;4954059;28;103522;-75
2024/02/27 00:27:24;;;;;;;;;71.33;56.67;;;;;-143.90;100.00;75571.25;4952173;28;101618;-74
2024/02/27 00:29:51;;;;;;;;;78.33;60.33;;;;;-143.90;100.00;75579.53;4955632;28;101940;-75
2024/02/27 00:32:17;;;;;;;;;89.00;67.25;;;;;-143.90;100.00;75596.06;4954843;28;103523;-74
2024/02/27 00:34:44;;;;;;;;;84.50;63.25;;;;;-143.90;100.00;75598.13;4961740;28;101743;-75
2024/02/27 00:37:11;;;;;;;;;83.67;62.00;;;;;-143.90;100.00;75589.84;4959883;28;102373;-75
2024/02/27 00:39:37;;;;;;;;;72.67;54.33;;;;;-143.90;100.00;75579.53;4948875;28;102334;-75
2024/02/27 00:42:04;;;;;;;;;69.67;51.00;;;;;-143.90;100.00;75565.03;4961119;28;103570;-75
2024/02/27 00:44:31;;;;;;;;;79.67;59.67;;;;;-143.90;100.00;75589.84;4953067;28;102076;-75
2024/02/27 00:46:57;;;;;;;;;73.67;57.67;;;;;-143.90;100.00;75606.41;4954320;28;101909;-75
2024/02/27 00:49:24;;;;;;;;;75.00;53.00;;;;;-143.90;100.00;75610.53;4950586;28;101725;-75
2024/02/27 00:51:51;;;;;;;;;64.00;51.00;;;;;-143.90;100.00;75614.66;4959681;28;103325;-74
2024/02/27 00:54:18;;;;;;;;;78.33;60.67;;;;;-143.90;100.00;75620.88;4956586;28;101792;-73
2024/02/27 00:56:45;;;;;;;;;67.67;51.33;;;;;-143.90;100.00;75620.88;4956252;28;101809;-76
2024/02/27 00:59:11;;;;;;;;;74.67;53.67;;;;;-143.90;100.00;75612.59;4959237;28;102601;-76
2024/02/27 01:01:38;;;;;;;;;78.33;59.67;;;;;-143.90;100.00;75604.34;4948822;28;103590;-74
2024/02/27 01:04:05;;;;;;;;;78.33;58.33;;;;;-143.90;100.00;75602.25;4958820;28;101875;-74
2024/02/27 01:06:31;;;;;;;;;82.33;61.00;;;;;-143.90;100.00;75598.13;4951922;28;101798;-74
2024/02/27 01:08:58;;;;;;;;;82.33;59.33;;;;;-143.90;100.00;75591.94;4955883;28;103377;-73
2024/02/27 01:11:25;;;;;;;;;75.33;56.00;;;;;-143.90;100.00;75581.59;4948767;28;103512;-73
2024/02/27 01:13:52;;;;;;;;;76.67;58.33;;;;;-143.90;100.00;75589.84;4952488;28;102001;-73
2024/02/27 01:16:20;;;;;;;;;72.33;55.00;;;;;-143.90;100.00;75575.38;4956414;28;102688;-72
2024/02/27 01:18:47;;;;;;;;;63.33;49.33;;;;;-143.90;100.00;75577.44;4954540;28;101959;-74
2024/02/27 01:21:14;;;;;;;;;52.00;41.67;;;;;-143.90;100.00;75577.44;4955082;28;107972;-73
2024/02/27 01:23:41;;;;;;;;;56.67;43.00;;;;;-143.90;100.00;75577.44;4950364;28;102183;-73
2024/02/27 01:26:07;;;;;;;;;56.00;45.67;;;;;-143.90;100.00;75585.72;4957339;28;101835;-74
2024/02/27 01:28:34;;;;;;;;;66.67;48.00;;;;;-143.90;100.00;75587.78;4962037;28;101689;-74
2024/02/27 01:31:01;;;;;;;;;72.67;56.00;;;;;-143.90;100.00;75589.84;4955542;28;103530;-74
2024/02/27 01:33:29;;;;;;;;;71.00;52.00;;;;;-143.90;100.00;75569.19;4945964;28;102121;-74
2024/02/27 01:35:55;;;;;;;;;67.33;50.67;;;;;-143.90;100.00;75567.13;4955654;28;103867;-73
2024/02/27 01:38:22;;;;;;;;;63.67;51.33;;;;;-143.90;100.00;75565.03;4953912;28;105002;-72
2024/02/27 01:40:49;;;;;;;;;65.00;49.00;;;;;-143.90;100.00;75569.19;4953100;28;103371;-74
2024/02/27 01:43:26;;;;;;;;;51.33;33.33;;;;;-143.90;100.00;75569.19;4959472;28;101923;-74
2024/02/27 01:46:04;;;;;;;;;60.00;44.33;;;;;-143.90;100.00;75565.03;4955764;28;102108;-74
2024/02/27 01:48:33;;;;;;;;;58.33;44.67;;;;;-143.90;100.00;75573.31;4954100;28;103303;-73
2024/02/27 01:51:02;;;;;;;;;65.33;47.33;;;;;-143.90;100.00;75567.13;4952072;28;103473;-74
2024/02/27 01:53:29;;;;;;;;;62.33;44.33;;;;;-143.90;100.00;75558.84;4944264;28;105729;-74
2024/02/27 01:55:56;;;;;;;;;60.67;42.00;;;;;-143.90;100.00;75556.78;4953642;28;101947;-73
2024/02/27 01:58:24;;;;;;;;;50.00;42.33;;;;;-143.90;100.00;75548.50;4951857;28;105090;-71
2024/02/27 02:00:51;;;;;;;;;65.33;51.00;;;;;-143.90;100.00;75548.50;4942096;28;107828;-74
2024/02/27 02:03:21;;;;;;;;;61.00;47.33;;;;;-143.90;100.00;75538.16;4929797;28;101674;-73
2024/02/27 02:05:49;;;;;;;;;39.67;36.00;;;;;-143.90;100.00;75544.38;4932535;28;101804;-74
2024/02/27 02:08:17;;;;;;;;;35.67;28.00;;;;;-143.90;100.00;75544.38;4953301;28;101867;-74
2024/02/27 02:10:43;;;;;;;;;38.67;35.00;;;;;-143.90;100.00;75550.56;4946674;28;103488;-74
2024/02/27 02:13:11;;;;;;;;;65.33;48.00;;;;;-143.90;100.00;75544.38;4942058;28;103210;-74
2024/02/27 02:15:37;;;;;;;;;83.67;62.33;;;;;-143.90;100.00;75525.75;4932245;28;103369;-73
2024/02/27 02:18:04;;;;;;;;;78.00;60.00;;;;;-143.90;100.00;75523.69;4951685;28;102115;-74
2024/02/27 02:20:31;;;;;;;;;78.67;57.33;;;;;-143.90;100.00;75540.22;4954285;28;103321;-73
2024/02/27 02:22:58;;;;;;;;;77.00;56.33;;;;;-143.90;100.00;75560.91;4949930;28;101835;-73
2024/02/27 02:25:30;;;;;;;;;79.67;58.67;;;;;-143.90;100.00;75562.97;4925240;28;101768;-73
2024/02/27 02:27:56;;;;;;;;;75.00;58.33;;;;;-143.90;100.00;75571.25;4959580;28;101980;-73
2024/02/27 02:30:23;;;;;;;;;78.00;58.33;;;;;-143.90;100.00;75573.31;4934720;28;103513;-72
2024/02/27 02:32:51;;;;;;;;;73.67;55.67;;;;;-143.90;100.00;75565.03;4949746;28;101834;-74
2024/02/27 02:35:19;;;;;;;;;71.00;54.00;;;;;-143.90;100.00;75552.63;4940444;28;104951;-73
2024/02/27 02:37:49;;;;;;;;;52.00;43.67;;;;;-143.90;100.00;75536.09;4942024;28;101979;-74
2024/02/27 02:40:21;;;;;;;;;75.67;55.33;;;;;-143.90;100.00;75536.09;4951418;28;103733;-74
2024/02/27 02:42:48;;;;;;;;;72.00;55.67;;;;;-143.90;100.00;75531.97;4947973;28;102458;-74
2024/02/27 02:45:15;;;;;;;;;78.33;56.00;;;;;-143.90;100.00;75538.16;4948577;28;101895;-74
2024/02/27 02:47:42;;;;;;;;;68.33;54.33;;;;;-143.90;100.00;75527.81;4939765;28;105812;-74
2024/02/27 02:50:11;;;;;;;;;76.33;57.33;;;;;-143.90;100.00;75519.56;4947532;28;103427;-74
2024/02/27 02:52:38;;;;;;;;;79.00;58.67;;;;;-143.90;100.00;75511.28;4948795;28;102143;-74
2024/02/27 02:55:06;;;;;;;;;71.33;54.67;;;;;-143.90;100.00;75496.81;4950619;28;101580;-74
2024/02/27 02:57:33;;;;;;;;;68.67;52.00;;;;;-143.90;100.00;75486.47;4949084;28;101600;-74
2024/02/27 03:00:01;;;;;;;;;64.33;50.00;;;;;-143.90;100.00;75474.06;4940589;28;103316;-74
2024/02/27 03:02:28;;;;;;;;;69.00;54.00;;;;;-143.90;100.00;75445.13;4957035;28;101945;-74
2024/02/27 03:04:54;;;;;;;;;75.00;52.33;;;;;-143.90;100.00;75412.03;4961341;28;101997;-74
2024/02/27 03:07:25;;;;;;;;;64.33;50.00;;;;;-143.90;100.00;75387.22;4960843;28;101660;-72
2024/02/27 03:09:51;;;;;;;;;62.33;48.00;;;;;-143.90;100.00;75358.28;4955812;28;108310;-75
2024/02/27 03:12:18;;;;;;;;;58.00;46.00;;;;;-143.90;100.00;75319.00;4958759;28;101788;-76
2024/02/27 03:14:45;;;;;;;;;64.67;49.33;;;;;-143.90;100.00;75283.84;4962707;28;101524;-76
2024/02/27 03:17:16;;;;;;;;;60.33;46.67;;;;;-143.90;100.00;75263.19;4961152;28;101827;-76
2024/02/27 03:19:43;;;;;;;;;60.67;47.00;;;;;-143.90;100.00;75252.84;4947082;28;103837;-76
2024/02/27 03:22:10;;;;;;;;;60.33;48.67;;;;;-143.90;100.00;75294.19;4958473;28;102034;-75
2024/02/27 03:24:37;;;;;;;;;70.33;53.33;;;;;-143.90;100.00;75364.50;4957693;28;105268;-75
2024/02/27 03:27:04;;;;;;;;;64.67;51.33;;;;;-143.90;100.00;75414.13;4964091;28;105592;-73
2024/02/27 03:29:31;;;;;;;;;69.00;52.33;;;;;-143.90;100.00;75432.72;4945887;28;103407;-74
2024/02/27 03:31:58;;;;;;;;;63.67;51.00;;;;;-143.90;100.00;75453.41;4952705;28;102418;-73
2024/02/27 03:34:26;;;;;;;;;73.33;56.00;;;;;-143.90;100.00;75465.81;4956112;28;102473;-73
2024/02/27 03:36:53;;;;;;;;;75.00;57.00;;;;;-143.90;100.00;75474.06;4965168;28;101912;-74
2024/02/27 03:39:20;;;;;;;;;78.00;58.33;;;;;-143.90;100.00;75498.88;4955939;28;108026;-74
2024/02/27 03:41:47;;;;;;;;;64.00;50.33;;;;;-143.90;100.00;75482.34;4959082;28;101785;-74
2024/02/27 03:44:14;;;;;;;;;63.00;49.33;;;;;-143.90;100.00;75478.22;4959176;28;101879;-74
2024/02/27 03:46:41;;;;;;;;;58.67;48.00;;;;;-143.90;100.00;75482.34;4960460;28;103572;-74
2024/02/27 03:49:07;;;;;;;;;59.67;46.67;;;;;-143.90;100.00;75480.28;4956509;28;103513;-74
2024/02/27 03:51:35;;;;;;;;;54.67;43.33;;;;;-143.90;100.00;75480.28;4948542;28;101978;-74
2024/02/27 03:54:02;;;;;;;;;59.67;46.00;;;;;-143.90;100.00;75476.13;4948214;28;102119;-73
2024/02/27 03:56:28;;;;;;;;;57.67;47.67;;;;;-143.90;100.00;75480.28;4960881;28;101603;-73
2024/02/27 03:58:55;;;;;;;;;56.00;41.33;;;;;-143.90;100.00;75482.34;4955197;28;103441;-73
2024/02/27 04:01:22;;;;;;;;;49.67;41.00;;;;;-143.90;100.00;75472.00;4953134;28;102820;-74
2024/02/27 04:03:49;;;;;;;;;63.33;50.67;;;;;-143.90;100.00;75472.00;4957128;28;102648;-74
2024/02/27 04:06:16;;;;;;;;;68.67;51.67;;;;;-143.90;100.00;75459.59;4951256;28;101680;-74
2024/02/27 04:08:42;;;;;;;;;76.33;55.00;;;;;-143.90;100.00;75453.41;4934687;28;104077;-74
2024/02/27 04:11:10;;;;;;;;;66.67;49.00;;;;;-143.90;100.00;75438.94;4945228;28;101902;-74
2024/02/27 04:13:37;;;;;;;;;49.67;39.33;;;;;-143.90;100.00;75412.03;4939472;28;102086;-74
2024/02/27 04:16:04;;;;;;;;;58.33;48.33;;;;;-143.90;100.00;75416.19;4959207;28;104144;-74
2024/02/27 04:18:33;;;;;;;;;55.00;43.00;;;;;-143.90;100.00;75418.25;4948662;28;102887;-74
2024/02/27 04:21:00;;;;;;;;;55.00;40.75;;;;;-143.90;100.00;75455.47;4949721;28;101803;-74
2024/02/27 04:23:27;;;;;;;;;35.50;25.75;;;;;-143.90;100.00;75449.25;4945837;28;102111;-73
2024/02/27 04:25:55;;;;;;;;;33.25;32.00;;;;;-143.90;100.00;75445.13;4949778;28;101557;-72
2024/02/27 04:28:21;;;;;;;;;33.00;29.00;;;;;-143.90;100.00;75453.41;4953373;28;108026;-73
2024/02/27 04:30:48;;;;;;;;;35.00;30.75;;;;;-143.90;100.00;75465.81;4949334;28;102002;-76
2024/02/27 04:33:15;;;;;;;;;35.75;29.50;;;;;-143.90;100.00;75469.94;4946603;28;101840;-73
2024/02/27 04:35:42;;;;;;;;;29.75;27.50;;;;;-143.90;100.00;75469.94;4937834;28;101989;-73
2024/02/27 04:38:08;;;;;;;;;30.50;27.50;;;;;-143.90;100.00;75480.28;4955252;28;103720;-73
2024/02/27 04:40:35;;;;;;;;;24.50;19.75;;;;;-143.90;100.00;75480.28;4955377;28;104609;-74
2024/02/27 04:43:02;;;;;;;;;29.00;23.00;;;;;-143.90;100.00;75482.34;4945364;28;101646;-74
2024/02/27 04:45:28;;;;;;;;;20.50;18.00;;;;;-143.90;100.00;75498.88;4941455;28;102025;-74
2024/02/27 04:47:55;;;;;;;;;39.50;32.25;;;;;-143.90;100.00;75513.34;4937591;28;103548;-72
2024/02/27 04:50:22;;;;;;;;;33.50;27.50;;;;;-143.90;100.00;75519.56;4938708;28;101943;-74
2024/02/27 04:52:49;;;;;;;;;33.25;27.50;;;;;-143.90;100.00;75523.69;4951077;28;103101;-74
2024/02/27 04:55:15;;;;;;;;;27.50;24.50;;;;;-143.90;100.00;75527.81;4951498;28;102858;-74
2024/02/27 04:57:42;;;;;;;;;34.00;27.00;;;;;-143.90;100.00;75542.31;4937793;28;103387;-74
2024/02/27 05:00:09;;;;;;;;;25.25;20.50;;;;;-143.90;100.00;75540.22;4945279;28;101956;-74
2024/02/27 05:02:37;;;;;;;;;25.25;22.00;;;;;-143.90;100.00;75546.44;4944737;28;101901;-73
2024/02/27 05:05:04;;;;;;;;;34.25;28.75;;;;;-143.90;100.00;75560.91;4937878;28;102360;-73
2024/02/27 05:07:30;;;;;;;;;35.75;32.25;;;;;-143.90;100.00;75554.72;4938396;28;103993;-73
2024/02/27 05:09:57;;;;;;;;;30.50;25.50;;;;;-143.90;100.00;75548.50;4931120;28;102884;-76
2024/02/27 05:12:24;;;;;;;;;35.00;27.75;;;;;-143.90;100.00;75558.84;4950738;28;101879;-74
2024/02/27 05:14:50;;;;;;;;;26.00;22.75;;;;;-143.90;100.00;75560.91;4956619;28;102855;-75
2024/02/27 05:17:17;;;;;;;;;21.00;18.50;;;;;-143.90;100.00;75560.91;4953025;28;103448;-73
2024/02/27 05:19:44;;;;;;;;;23.00;20.75;;;;;-143.90;100.00;75558.84;4949949;28;101924;-73
2024/02/27 05:22:11;;;;;;;;;27.75;25.50;;;;;-143.90;100.00;75556.78;4947798;28;101708;-74
2024/02/27 05:24:39;;;;;;;;;33.50;28.25;;;;;-143.90;100.00;75556.78;4956675;28;106231;-73
2024/02/27 05:27:06;;;;;;;;;26.00;21.50;;;;;-143.90;100.00;75548.50;4955623;28;103386;-73
2024/02/27 05:29:33;;;;;;;;;40.25;35.75;;;;;-143.90;100.00;75536.09;4948746;28;101981;-73
2024/02/27 05:32:00;;;;;;;;;39.00;33.25;;;;;-143.90;100.00;75521.63;4957554;28;104939;-73
2024/02/27 05:34:26;;;;;;;;;52.00;40.33;;;;;-143.90;100.00;75521.63;4953651;28;102671;-73
2024/02/27 05:36:53;;;;;;;;;38.50;36.50;;;;;-143.90;100.00;75517.50;4952961;28;111361;-74
2024/02/27 05:39:20;;;;;;;;;39.00;34.00;;;;;-143.90;100.00;75507.16;4951275;28;102731;-75
2024/02/27 05:41:47;;;;;;;;;37.25;32.25;;;;;-143.90;100.00;75503.03;4953023;28;101591;-73
2024/02/27 05:44:14;;;;;;;;;42.00;37.50;;;;;-143.90;100.00;75498.88;4951303;28;101866;-73
2024/02/27 05:46:41;;;;;;;;;61.67;47.33;;;;;-143.90;100.00;75505.09;4948063;28;103386;-73
2024/02/27 05:49:08;;;;;;;;;69.67;55.67;;;;;-143.90;100.00;75527.81;4949420;28;103909;-73
2024/02/27 05:51:36;;;;;;;;;78.67;59.33;;;;;-143.90;100.00;75544.38;4944168;28;101973;-73
2024/02/27 05:54:03;;;;;;;;;66.33;50.33;;;;;-143.90;100.00;75556.78;4957346;28;103446;-73
2024/02/27 05:56:30;;;;;;;;;66.33;50.33;;;;;-143.90;100.00;75552.63;4953260;28;103335;-73
2024/02/27 05:58:56;;;;;;;;;38.33;26.00;;;;;-143.90;100.00;75536.09;4952435;28;103803;-74
2024/02/27 06:01:23;;;;;;;;;57.67;43.00;;;;;-143.90;100.00;75523.69;4945284;28;102636;-74
2024/02/27 06:03:50;;;;;;;;;36.25;32.25;;;;;-143.90;100.00;75511.28;4946140;28;103218;-74
2024/02/27 06:06:17;;;;;;;;;32.75;27.75;;;;;-143.90;100.00;75503.03;4943416;28;103484;-73
2024/02/27 06:08:44;;;;;;;;;34.00;31.00;;;;;-143.90;100.00;75503.03;4943777;28;102259;-73
2024/02/27 06:11:10;;;;;;;;;33.75;27.75;;;;;-143.90;100.00;75490.63;4958944;28;102493;-74
2024/02/27 06:13:37;;;;;;;;;26.75;23.25;;;;;-143.90;100.00;75486.47;4925179;28;101859;-74
2024/02/27 06:16:04;;;;;;;;;22.50;19.75;;;;;-143.90;100.00;75490.63;4959517;28;103583;-74
2024/02/27 06:18:33;;;;;;;;;28.50;26.25;;;;;-143.90;100.00;75486.47;4948498;28;101932;-73
2024/02/27 06:23:46;;;;;;;;;33.50;28.75;;;;;-143.90;100.00;75494.75;4947617;28;101859;-75
2024/02/27 06:26:15;;;;;;;;;27.75;23.00;;;;;-143.90;100.00;75486.47;4946702;28;103299;-75
2024/02/27 06:28:42;;;;;;;;;22.25;18.50;;;;;-143.90;100.00;75486.47;4954185;28;101992;-74
2024/02/27 06:31:10;;;;;;;;;29.00;26.50;;;;;-143.90;100.00;75492.69;4952265;28;101640;-74
2024/02/27 06:33:37;;;;;;;;;36.00;28.75;;;;;-143.90;100.00;75494.75;4947058;28;102685;-75
2024/02/27 06:36:04;;;;;;;;;25.50;20.00;;;;;-143.90;100.00;75480.28;4953472;28;103266;-74
2024/02/27 06:38:31;;;;;;;;;56.00;41.75;;;;;-143.90;100.00;75492.69;4953943;28;101983;-74
2024/02/27 06:40:58;;;;;;;;;46.50;36.00;;;;;-143.90;100.00;75486.47;4958475;28;104846;-74
2024/02/27 06:43:25;;;;;;;;;44.75;39.50;;;;;-143.90;100.00;75490.63;4940472;28;103870;-74
2024/02/27 06:45:51;;;;;;;;;52.25;39.25;;;;;-143.90;100.00;75492.69;4950805;28;103672;-74
2024/02/27 06:48:18;;;;;;;;;42.75;34.50;;;;;-143.90;100.00;75486.47;4956213;28;101819;-74
2024/02/27 06:50:45;;;;;;;;;45.25;36.75;;;;;-143.90;100.00;75490.63;4949043;28;102090;-74
2024/02/27 06:53:12;;;;;;;;;47.50;39.00;;;;;-143.90;100.00;75486.47;4946516;28;101987;-74
2024/02/27 06:55:39;;;;;;;;;34.50;28.25;;;;;-143.90;100.00;75476.13;4943729;28;103340;-76
2024/02/27 06:58:06;;;;;;;;;42.75;33.75;;;;;-143.90;100.00;75482.34;4952255;28;102420;-75
2024/02/27 07:00:33;;;;;;;;;37.50;32.00;;;;;-143.90;100.00;75476.13;4949549;28;102103;-75
2024/02/27 07:03:00;;;;;;;;;34.50;30.50;;;;;-143.90;100.00;75472.00;4950317;28;101942;-74
2024/02/27 07:05:27;;;;;;;;;37.50;32.50;;;;;-143.90;100.00;75478.22;4947705;28;108265;-75
2024/02/27 07:08:05;;;;;;;;;34.25;29.75;;;;;-143.90;100.00;75463.72;4949093;28;101590;-74
2024/02/27 07:10:32;;;;;;;;;25.25;21.75;;;;;-143.90;100.00;75463.72;4941758;28;102840;-74
2024/02/27 07:12:59;;;;;;;;;28.25;21.50;;;;;-143.90;100.00;75457.53;4938623;28;101984;-75
2024/02/27 07:15:25;;;;;;;;;27.25;22.50;;;;;-143.90;100.00;75459.59;4952926;28;108154;-74
2024/02/27 07:17:52;;;;;;;;;24.75;22.50;;;;;-143.90;100.00;75455.47;4954649;28;101786;-75
2024/02/27 07:20:19;;;;;;;;;35.25;30.25;;;;;-143.90;100.00;75453.41;4954523;28;102199;-74
2024/02/27 07:22:48;;;;;;;;;35.00;29.00;;;;;-143.90;100.00;75445.13;4948936;28;101661;-74
2024/02/27 07:25:15;;;;;;;;;46.75;40.00;;;;;-143.90;100.00;75432.72;4934801;28;103346;-75
2024/02/27 07:27:42;;;;;;;;;49.00;39.00;;;;;-143.90;100.00;75416.19;4935174;28;101880;-75
2024/02/27 07:30:10;;;;;;;;;58.75;42.50;;;;;-143.90;100.00;75401.72;4946732;28;101911;-75
2024/02/27 07:32:37;;;;;;;;;55.67;44.00;;;;;-143.90;100.00;75389.31;4954474;28;102181;-75
2024/02/27 07:35:04;;;;;;;;;49.75;40.00;;;;;-143.90;100.00;75374.84;4952572;28;103343;-75
2024/02/27 07:37:31;;;;;;;;;43.50;35.75;;;;;-143.90;100.00;75358.28;4941868;28;102004;-75
2024/02/27 07:39:57;;;;;;;;;50.75;39.00;;;;;-143.90;100.00;75345.88;4963198;28;101572;-75
2024/02/27 07:42:24;;;;;;;;;52.75;41.00;;;;;-143.90;100.00;75350.03;4958658;28;101901;-74
2024/02/27 07:44:51;;;;;;;;;54.75;42.25;;;;;-143.90;100.00;75341.75;4960048;28;103508;-73
2024/02/27 07:47:17;;;;;;;;;58.25;44.00;;;;;-143.90;100.00;75335.53;4953104;28;101939;-74
2024/02/27 07:49:46;;;;;;;;;59.00;44.00;;;;;-143.90;100.00;75329.34;4954307;28;106729;-75
2024/02/27 07:52:15;;;;;;;;;51.50;41.50;;;;;-143.90;100.00;75296.25;4958461;28;101951;-76
2024/02/27 07:54:42;;;;;;;;;52.75;43.50;;;;;-143.90;100.00;75279.72;4958137;28;103366;-75
2024/02/27 07:57:09;;;;;;;;;51.75;41.50;;;;;-143.90;100.00;75252.84;4953188;28;101921;-75
2024/02/27 07:59:36;;;;;;;;;47.00;38.00;;;;;-143.90;100.00;75225.97;4953628;28;102406;-75
2024/02/27 08:02:03;;;;;;;;;52.50;42.00;;;;;-143.90;100.00;75203.22;4960408;28;101789;-75
2024/02/27 08:04:30;;;;;;;;;55.00;41.00;;;;;-143.90;100.00;75197.03;4955883;28;105083;-75
2024/02/27 08:06:57;;;;;;;;;60.75;47.00;;;;;-143.90;100.00;75186.69;4955392;28;101747;-75
2024/02/27 08:09:25;;;;;;;;;60.00;44.50;;;;;-143.90;100.00;75168.09;4952577;28;101619;-75
2024/02/27 08:11:52;;;;;;;;;51.25;42.00;;;;;-143.90;100.00;75143.28;4957834;28;101592;-75
2024/02/27 08:14:19;;;;;;;;;56.75;44.00;;;;;-143.90;100.00;75108.13;4955726;28;103519;-75
2024/02/27 08:16:46;;;;;;;;;51.75;41.75;;;;;-143.90;100.00;75064.72;4954902;28;101949;-75
2024/02/27 08:19:12;;;;;;;;;38.50;34.75;;;;;-143.90;100.00;75021.31;4955624;28;101971;-74
2024/02/27 08:21:39;;;;;;;;;24.75;24.75;;;;;-143.90;100.00;74996.50;4946627;28;105872;-74
2024/02/27 08:24:08;;;;;;;;;38.00;34.50;;;;;-143.90;100.00;74959.28;4958455;28;103573;-74
2024/02/27 08:26:35;;;;;;;;;38.75;31.00;;;;;-143.90;100.00;74924.13;4955964;28;107250;-73
2024/02/27 08:29:02;;;;;;;;;31.50;29.50;;;;;-143.90;100.00;74889.00;4955797;28;101700;-73
2024/02/27 08:31:28;;;;;;;;;35.00;32.25;;;;;-143.90;100.00;74855.91;4952062;28;102066;-72
2024/02/27 08:33:56;;;;;;;;;51.50;42.50;;;;;-143.90;100.00;74822.84;4961416;28;111673;-75
2024/02/27 08:36:26;;;;;;;;;62.75;46.75;;;;;-143.90;100.00;74802.16;4951456;28;101894;-74
2024/02/27 08:38:53;;;;;;;;;54.00;41.50;;;;;-143.90;100.00;74771.16;4954062;28;101975;-75
2024/02/27 08:41:21;;;;;;;;;44.50;36.75;;;;;-143.90;100.00;74742.22;4956946;28;101961;-75
2024/02/27 08:43:49;;;;;;;;;48.50;41.50;;;;;-143.90;100.00;74721.56;4949867;28;103440;-75
2024/02/27 08:46:19;;;;;;;;;48.25;39.75;;;;;-143.90;100.00;74700.88;4954486;28;101525;-75
2024/02/27 08:48:47;;;;;;;;;40.00;34.25;;;;;-143.90;100.00;74678.16;4954592;28;101940;-75
2024/02/27 08:51:14;;;;;;;;;29.75;27.50;;;;;-143.90;100.00;74649.19;4958260;28;101603;-75
2024/02/27 08:53:41;;;;;;;;;31.50;26.25;;;;;-143.90;100.00;74618.19;4943647;28;103469;-74
2024/02/27 08:56:07;;;;;;;;;25.25;21.00;;;;;-143.90;100.00;74589.25;4957156;28;101914;-75
2024/02/27 08:58:36;;;;;;;;;19.25;18.25;;;;;-143.90;100.00;74560.31;4957636;28;101958;-75
2024/02/27 09:01:03;;;;;;;;;17.50;14.75;;;;;-143.90;100.00;74537.56;4957351;28;101907;-76
2024/02/27 09:03:31;;;;;;;;;11.75;10.75;;;;;-143.90;100.00;74512.78;4948684;28;104920;-73
2024/02/27 09:05:57;;;;;;;;;14.50;13.75;;;;;-143.90;100.00;74481.78;4959382;28;101786;-74
2024/02/27 09:08:24;;;;;;;;;15.25;12.25;;;;;-143.90;100.00;74450.75;4958413;28;105862;-74
2024/02/27 09:10:51;;;;;;;;;14.50;11.75;;;;;-143.90;69.05;74417.69;4958286;28;102093;-75
2024/02/27 09:13:18;;;;;;;;;12.50;9.50;;;;;-143.90;65.61;74390.81;4954692;28;103867;-75
2024/02/27 09:15:44;;;;;;;;;9.50;8.75;;;;;-143.90;62.76;74359.81;4936457;28;102470;-75
2024/02/27 09:18:12;;;;;;;;;11.00;10.25;;;;;-143.90;63.61;74332.94;4955344;28;101811;-75
2024/02/27 09:20:41;;;;;;;;;13.25;7.25;;;;;-143.90;62.90;74295.75;4958941;28;102198;-74
2024/02/27 09:23:08;;;;;;;;;7.25;7.00;;;;;-143.90;63.29;74275.06;4950688;28;103373;-74
2024/02/27 09:25:35;;;;;;;;;9.00;6.75;;;;;-143.90;62.06;74246.13;4951873;28;105659;-74
2024/02/27 09:28:01;;;;;;;;;15.50;13.50;;;;;-143.90;58.62;74244.06;4953768;28;102020;-76
2024/02/27 09:30:28;;;;;;;;;14.75;11.50;;;;;-143.90;58.30;74225.47;4955516;28;102047;-76
2024/02/27 09:32:55;;;;;;;;;14.75;13.75;;;;;-143.90;58.97;74219.25;4944940;28;103333;-76
2024/02/27 09:35:22;;;;;;;;;9.25;8.75;;;;;-143.90;58.35;74204.78;4953623;28;101834;-76
2024/02/27 09:37:48;;;;;;;;;10.50;9.00;;;;;-143.90;55.80;74200.66;4948895;28;103579;-76
2024/02/27 09:40:15;;;;;;;;;8.50;7.50;;;;;-143.90;56.59;74192.41;4955395;28;101941;-76
2024/02/27 09:42:45;;;;;;;;;17.75;14.25;;;;;-143.90;55.75;74196.53;4945830;28;103374;-76
2024/02/27 09:45:14;;;;;;;;;12.25;11.25;;;;;-143.90;54.21;74198.59;4947440;28;101801;-76
2024/02/27 09:47:45;;;;;;;;;10.25;9.75;;;;;-143.90;53.75;74190.31;4942301;28;101725;-75
2024/02/27 09:50:18;;;;;;;;;9.00;9.00;;;;;-143.90;53.12;74171.72;4954294;28;106224;-76
2024/02/27 09:52:51;;;;;;;;;14.25;13.75;;;;;-143.90;51.02;74180.00;4956030;28;103492;-76
2024/02/27 09:55:20;;;;;;;;;12.25;12.00;;;;;-143.90;52.33;74177.94;4949517;28;102031;-76
2024/02/27 09:57:48;;;;;;;;;9.00;9.00;;;;;-143.90;51.53;74161.38;4950097;28;101744;-76
2024/02/27 10:00:18;;;;;;;;;15.00;12.50;;;;;-143.90;52.58;74142.78;4959362;28;101866;-76
2024/02/27 10:02:49;;;;;;;;;10.00;8.33;;;;;-143.90;52.29;74130.38;4950790;28;103645;-76
2024/02/27 10:05:19;;;;;;;;;10.00;9.00;;;;;-143.90;50.87;74120.06;4953862;28;101736;-76
2024/02/27 10:07:48;;;;;;;;;10.00;8.33;;;;;-143.90;50.25;74122.13;4953125;28;102655;-76
2024/02/27 10:10:18;;;;;;;;;10.25;10.00;;;;;-143.90;50.14;74138.66;4957269;28;102529;-74
2024/02/27 10:12:46;;;;;;;;;12.33;9.00;;;;;-143.90;50.04;74138.66;4958709;28;103554;-74
2024/02/27 10:15:14;;;;;;;;;10.33;10.00;;;;;-143.90;49.93;74157.25;4959532;28;101812;-74
2024/02/27 10:17:43;;;;;;;;;9.00;7.67;;;;;-143.90;52.45;74140.72;4943662;28;101816;-76
2024/02/27 10:20:13;;;;;;;;;9.00;9.00;;;;;-143.90;51.70;74130.38;4957086;28;101530;-74
2024/02/27 10:22:41;;;;;;;;;9.00;7.00;;;;;-143.90;50.89;74107.66;4957832;28;103336;-77
2024/02/27 10:25:11;;;;;;;;;9.00;8.67;;;;;-143.90;51.33;74093.19;4956501;28;101805;-71
2024/02/27 10:27:41;;;;;;;;;9.00;8.00;;;;;-143.90;51.45;74093.19;4948040;28;101737;-73
2024/02/27 10:30:09;;;;;;;;;8.00;7.00;;;;;-143.90;50.47;74080.78;4961102;28;102141;-73
2024/02/27 10:32:36;;;;;;;;;7.00;6.00;;;;;-143.90;51.43;74068.38;4949081;28;103785;-73
2024/02/27 10:35:03;;;;;;;;;15.00;15.00;;;;;-143.90;51.03;74049.78;4956948;28;102189;-71
2024/02/27 10:37:35;;;;;;;;;11.00;9.67;;;;;-143.90;49.27;74047.72;4948640;28;102313;-71
2024/02/27 10:40:07;;;;;;;;;13.00;11.00;;;;;-143.90;48.69;74043.59;4952625;28;101806;-72
2024/02/27 10:42:36;;;;;;;;;9.00;9.00;;;;;-143.90;48.10;74035.31;4948627;28;107814;-72
2024/02/27 10:45:05;;;;;;;;;11.33;11.00;;;;;-143.90;49.19;74018.78;4957184;28;101818;-72
2024/02/27 10:47:33;;;;;;;;;10.00;10.00;;;;;-143.90;46.55;74018.78;4951206;28;102910;-72
2024/02/27 10:50:05;;;;;;;;;10.00;10.00;;;;;-143.90;46.95;74016.72;4965169;28;102035;-71
2024/02/27 10:52:36;;;;;;;;;10.33;10.33;;;;;-143.90;48.41;74008.44;4953110;28;107992;-72